Time;durP1;ratioP1;P1;durP2;ratioP2;P2;SDS_P1;SDS_P2;PMS_P1;PMS_P2;Temp;Humidity;BMP_temperature;BMP_pressure;BME280_temperature;BME280_humidity;BME280_pressure;Samples;Min_cycle;Max_cycle;Signal;HPM_P1;HPM_P2
2021/06/04 00:01:47;;;;;;;3.87;3.50;;;;;;;20.98;57.64;97052.03;5057704;28;20426;-68
2021/06/04 00:04:13;;;;;;;4.80;3.80;;;;;;;21.09;57.67;97053.16;5054474;28;20463;-68
2021/06/04 00:06:38;;;;;;;3.90;3.60;;;;;;;21.07;57.61;97049.06;5054440;28;20414;-67
2021/06/04 00:09:06;;;;;;;4.30;3.40;;;;;;;21.19;57.00;97049.94;5060696;28;20211;-68
2021/06/04 00:11:39;;;;;;;5.10;3.40;;;;;;;21.12;57.18;97046.56;5049682;28;20546;-68
2021/06/04 00:14:09;;;;;;;3.70;3.27;;;;;;;21.21;56.77;97047.06;5055801;28;20418;-68
2021/06/04 00:16:38;;;;;;;4.30;3.53;;;;;;;21.25;56.81;97051.72;5048819;28;20420;-68
2021/06/04 00:19:09;;;;;;;3.20;3.00;;;;;;;21.23;56.44;97048.44;5054216;28;20441;-68
2021/06/04 00:21:41;;;;;;;5.73;4.00;;;;;;;21.27;56.25;97048.81;5043668;28;20510;-69
2021/06/04 00:24:08;;;;;;;3.73;3.27;;;;;;;21.25;56.23;97048.22;5052432;28;20458;-68
2021/06/04 00:26:35;;;;;;;3.47;3.17;;;;;;;21.28;56.12;97040.63;5057147;28;20425;-67
2021/06/04 00:29:02;;;;;;;5.03;3.47;;;;;;;21.30;55.71;97049.16;5055491;28;20438;-68
2021/06/04 00:31:28;;;;;;;5.63;3.50;;;;;;;21.31;55.81;97050.81;5055962;28;20426;-66
2021/06/04 00:33:54;;;;;;;4.13;3.67;;;;;;;21.27;56.06;97054.16;5057997;28;20438;-69
2021/06/04 00:36:23;;;;;;;3.67;3.30;;;;;;;21.19;56.03;97047.28;5054689;28;20425;-68
2021/06/04 00:38:49;;;;;;;3.73;3.43;;;;;;;21.18;56.00;97051.78;5057244;28;20476;-69
2021/06/04 00:41:22;;;;;;;3.50;3.20;;;;;;;21.25;56.03;97041.06;5056880;28;20468;-68
2021/06/04 00:43:48;;;;;;;4.10;3.40;;;;;;;21.29;55.98;97046.75;5048319;28;20223;-68
2021/06/04 00:46:14;;;;;;;4.10;3.47;;;;;;;21.33;55.60;97043.41;5050912;28;20426;-67
2021/06/04 00:48:40;;;;;;;3.73;3.43;;;;;;;21.29;55.80;97046.75;5048471;28;20222;-67
2021/06/04 00:51:24;;;;;;;5.13;3.60;;;;;;;21.26;56.20;97044.53;5035872;28;20175;-67
2021/06/04 00:53:50;;;;;;;3.53;3.10;;;;;;;21.22;56.14;97046.03;5047604;28;20406;-68
2021/06/04 00:56:16;;;;;;;5.83;3.13;;;;;;;21.20;56.17;97042.78;5054971;28;20414;-68
2021/06/04 00:58:44;;;;;;;3.90;3.50;;;;;;;21.21;56.22;97037.19;5056297;28;20987;-68
2021/06/04 01:01:11;;;;;;;3.53;3.23;;;;;;;21.20;56.18;97027.56;5057018;28;20194;-68
2021/06/04 01:03:41;;;;;;;5.97;3.80;;;;;;;21.11;56.23;97036.94;5055427;28;20461;-69
2021/06/04 01:06:15;;;;;;;4.23;3.83;;;;;;;20.75;58.21;97041.25;5056097;28;20861;-68
2021/06/04 01:08:59;;;;;;;3.80;3.37;;;;;;;20.72;57.96;97043.28;5055098;28;20982;-66
2021/06/04 01:11:33;;;;;;;4.17;3.77;;;;;;;20.54;58.59;97043.28;5031102;28;20410;-68
2021/06/04 01:14:10;;;;;;;4.50;4.10;;;;;;;20.73;58.03;97049.41;5038942;28;20421;-67
2021/06/04 01:16:45;;;;;;;3.80;3.50;;;;;;;20.82;57.57;97048.13;5047468;28;20946;-68
2021/06/04 01:19:58;;;;;;;5.30;3.80;;;;;;;20.86;57.17;97051.94;5048792;28;20441;-68
2021/06/04 01:22:53;;;;;;;4.53;3.90;;;;;;;20.87;57.46;97050.13;5029864;28;20575;-68
2021/06/04 01:25:32;;;;;;;4.50;3.70;;;;;;;20.91;57.34;97037.16;5056502;28;20425;-69
2021/06/04 01:27:59;;;;;;;5.90;3.43;;;;;;;20.94;57.28;97042.84;5054765;28;20432;-70
2021/06/04 01:30:35;;;;;;;5.80;3.67;;;;;;;20.91;57.42;97040.66;5037767;28;20441;-67
2021/06/04 01:33:05;;;;;;;4.00;3.40;;;;;;;20.81;57.55;97056.31;5054289;28;20417;-67
2021/06/04 01:35:36;;;;;;;4.83;3.40;;;;;;;20.78;58.10;97041.59;5054366;28;20804;-68
2021/06/04 01:38:03;;;;;;;5.17;3.50;;;;;;;20.83;57.70;97048.91;5045785;28;20421;-67
2021/06/04 01:40:50;;;;;;;4.50;4.00;;;;;;;20.68;58.02;97046.59;5053724;28;20532;-66
2021/06/04 01:43:38;;;;;;;4.50;3.60;;;;;;;20.33;59.55;97047.16;5053051;28;20487;-68
2021/06/04 01:46:09;;;;;;;5.33;4.37;;;;;;;20.45;59.64;97052.56;5038671;28;20430;-68
2021/06/04 01:48:39;;;;;;;4.50;4.10;;;;;;;20.40;59.91;97048.72;5054911;28;20410;-71
2021/06/04 01:51:13;;;;;;;5.07;4.10;;;;;;;20.41;60.21;97055.66;5054906;28;20433;-67
2021/06/04 01:53:44;;;;;;;5.20;4.10;;;;;;;20.58;59.27;97052.44;5018232;28;20421;-69
2021/06/04 01:56:32;;;;;;;5.67;4.20;;;;;;;20.61;59.27;97053.81;5028336;28;20427;-69
2021/06/04 01:59:05;;;;;;;5.00;4.60;;;;;;;20.64;59.21;97056.88;5049557;28;20458;-68
2021/06/04 02:01:37;;;;;;;5.23;4.63;;;;;;;20.71;58.84;97048.84;5056908;28;20466;-68
2021/06/04 02:04:08;;;;;;;6.37;5.80;;;;;;;20.68;58.97;97050.06;5057282;28;20445;-68
2021/06/04 02:06:35;;;;;;;8.90;8.00;;;;;;;20.60;59.65;97052.22;5057061;28;20426;-67
2021/06/04 02:09:07;;;;;;;6.13;5.63;;;;;;;20.66;59.22;97049.50;5058336;28;20498;-68
2021/06/04 02:11:32;;;;;;;7.93;6.50;;;;;;;20.70;58.94;97053.31;5059172;28;20417;-68
2021/06/04 02:14:03;;;;;;;7.97;5.70;;;;;;;20.72;58.83;97050.47;5057860;28;20409;-67
2021/06/04 02:16:29;;;;;;;8.33;6.10;;;;;;;20.72;58.45;97053.94;5056960;28;20595;-68
2021/06/04 02:19:21;;;;;;;6.57;5.10;;;;;;;20.68;58.60;97052.72;5056514;28;20475;-67
2021/06/04 02:21:55;;;;;;;7.27;5.60;;;;;;;20.69;58.40;97054.34;5045488;28;20250;-66
2021/06/04 02:24:41;;;;;;;8.83;7.40;;;;;;;20.52;59.37;97066.63;5057318;28;20868;-68
2021/06/04 02:27:19;;;;;;;6.77;6.17;;;;;;;20.65;59.06;97063.84;5040581;28;20781;-68
2021/06/04 02:29:51;;;;;;;9.30;5.40;;;;;;;20.60;58.89;97061.00;5059160;28;20445;-68
2021/06/04 02:32:18;;;;;;;7.43;5.77;;;;;;;20.64;58.63;97066.72;5042343;28;20512;-68
2021/06/04 02:34:49;;;;;;;6.40;4.93;;;;;;;20.64;58.74;97072.03;5060424;28;20449;-68
2021/06/04 02:37:22;;;;;;;5.83;4.40;;;;;;;20.56;58.81;97065.13;5057506;28;20992;-68
2021/06/04 02:40:11;;;;;;;5.20;4.30;;;;;;;20.56;58.63;97062.47;5043742;28;20453;-66
2021/06/04 02:42:40;;;;;;;8.17;4.20;;;;;;;20.56;58.39;97063.31;5050060;28;20522;-67
2021/06/04 02:45:23;;;;;;;4.77;4.13;;;;;;;20.50;59.02;97060.72;5073269;28;20454;-70
2021/06/04 02:47:51;;;;;;;5.20;4.67;;;;;;;20.45;58.98;97058.72;5075348;28;20418;-69
2021/06/04 02:50:37;;;;;;;6.20;4.20;;;;;;;20.40;59.06;97061.19;5046217;28;21188;-68
2021/06/04 02:53:29;;;;;;;5.50;5.00;;;;;;;20.32;59.63;97056.97;5044597;28;20467;-69
2021/06/04 02:56:07;;;;;;;4.87;4.47;;;;;;;20.24;59.75;97062.56;5057781;28;20417;-68
2021/06/04 02:58:33;;;;;;;5.10;4.60;;;;;;;20.26;59.56;97057.84;5047102;28;20432;-68
2021/06/04 03:00:59;;;;;;;5.03;4.63;;;;;;;20.25;59.83;97056.22;5054266;28;20449;-67
2021/06/04 03:03:25;;;;;;;5.63;5.13;;;;;;;20.14;60.28;97055.06;5058885;28;20540;-68
2021/06/04 03:05:50;;;;;;;7.17;5.60;;;;;;;20.03;61.04;97064.59;5059268;28;20183;-68
2021/06/04 03:08:19;;;;;;;6.97;5.83;;;;;;;19.86;62.03;97068.75;5058212;28;20461;-68
2021/06/04 03:10:47;;;;;;;6.40;5.80;;;;;;;19.87;62.34;97062.44;5056940;28;20179;-68
2021/06/04 03:13:18;;;;;;;6.50;5.87;;;;;;;19.93;62.10;97069.56;5057638;28;20444;-66
2021/06/04 03:15:48;;;;;;;6.57;5.97;;;;;;;19.96;62.08;97071.78;5057315;28;20946;-68
2021/06/04 03:18:28;;;;;;;10.60;6.40;;;;;;;20.01;61.84;97069.31;5057724;28;20551;-68
2021/06/04 03:20:54;;;;;;;7.57;6.10;;;;;;;20.01;61.88;97064.00;5052770;28;21028;-68
2021/06/04 03:23:22;;;;;;;7.13;6.43;;;;;;;19.85;62.80;97067.94;5045209;28;20623;-69
2021/06/04 03:25:51;;;;;;;7.17;6.10;;;;;;;19.86;62.88;97071.44;5060202;28;20262;-68
2021/06/04 03:28:20;;;;;;;7.80;7.03;;;;;;;19.80;63.47;97070.44;5058752;28;20533;-69
2021/06/04 03:30:47;;;;;;;13.80;7.20;;;;;;;19.89;63.25;97065.72;5054448;28;20410;-68
2021/06/04 03:33:16;;;;;;;7.73;6.77;;;;;;;19.93;63.26;97074.88;5060357;28;20436;-68
2021/06/04 03:35:43;;;;;;;7.97;6.70;;;;;;;19.97;63.23;97067.31;5060484;28;20555;-68
2021/06/04 03:38:09;;;;;;;8.60;7.63;;;;;;;19.98;63.01;97075.06;5057521;28;20760;-68
2021/06/04 03:40:35;;;;;;;7.90;6.47;;;;;;;20.00;63.10;97075.66;5037350;28;20457;-68
2021/06/04 03:43:04;;;;;;;7.50;6.20;;;;;;;20.04;62.82;97074.16;5056911;28;20454;-69
2021/06/04 03:45:33;;;;;;;6.67;6.07;;;;;;;20.00;62.81;97075.66;5066303;28;20167;-69
2021/06/04 03:47:59;;;;;;;7.90;7.20;;;;;;;20.05;63.00;97085.66;5065616;28;20413;-69
2021/06/04 03:50:25;;;;;;;8.67;6.23;;;;;;;20.08;62.78;97080.69;5057307;28;20442;-67
2021/06/04 03:52:50;;;;;;;7.27;6.67;;;;;;;20.02;63.04;97086.91;5040874;28;20420;-68
2021/06/04 03:55:17;;;;;;;11.50;6.70;;;;;;;20.05;63.00;97083.78;5055533;28;20551;-68
2021/06/04 03:57:45;;;;;;;9.43;6.23;;;;;;;20.17;62.29;97085.75;5069084;28;20167;-68
2021/06/04 04:00:27;;;;;;;6.30;5.77;;;;;;;20.39;61.46;97084.34;5067046;28;20441;-68
2021/06/04 04:02:54;;;;;;;5.80;5.30;;;;;;;20.53;61.25;97086.91;5055050;28;20456;-68
2021/06/04 04:05:20;;;;;;;6.70;5.90;;;;;;;20.69;60.79;97082.84;5042672;28;20421;-69
2021/06/04 04:07:46;;;;;;;6.10;5.50;;;;;;;20.81;60.37;97078.44;5061149;28;20432;-68
2021/06/04 04:10:12;;;;;;;6.60;5.83;;;;;;;20.90;60.53;97076.31;5054259;28;20458;-68
2021/06/04 04:12:38;;;;;;;7.97;6.20;;;;;;;20.97;60.94;97076.25;5059191;28;20178;-66
2021/06/04 04:15:09;;;;;;;7.30;6.60;;;;;;;21.16;61.09;97075.19;5059360;28;20492;-67
2021/06/04 04:17:35;;;;;;;6.63;6.10;;;;;;;21.34;60.68;97076.22;5059892;28;20417;-68
2021/06/04 04:20:00;;;;;;;6.20;5.60;;;;;;;21.44;60.63;97080.97;5057960;28;20484;-66
2021/06/04 04:22:27;;;;;;;7.20;6.50;;;;;;;21.44;60.65;97087.16;5055055;28;20237;-67
2021/06/04 04:24:53;;;;;;;6.10;5.60;;;;;;;21.53;60.56;97092.16;5059848;28;20183;-67
2021/06/04 04:27:18;;;;;;;7.90;6.53;;;;;;;21.54;60.97;97086.63;5060692;28;20422;-67
2021/06/04 04:29:44;;;;;;;6.33;5.73;;;;;;;21.46;61.17;97084.25;5059725;28;20298;-67
2021/06/04 04:32:13;;;;;;;8.50;5.83;;;;;;;21.39;61.45;97091.53;5060477;28;20183;-67
2021/06/04 04:34:40;;;;;;;6.73;6.13;;;;;;;21.40;61.96;97093.16;5059967;28;20185;-67
2021/06/04 04:37:06;;;;;;;7.17;6.47;;;;;;;21.57;61.31;97090.66;5058238;28;20548;-67
2021/06/04 04:39:37;;;;;;;11.03;6.30;;;;;;;21.66;61.08;97092.00;5056998;28;21025;-68
2021/06/04 04:42:06;;;;;;;8.20;6.07;;;;;;;21.78;61.03;97094.72;5053928;28;20236;-68
2021/06/04 04:44:35;;;;;;;8.47;6.43;;;;;;;21.86;60.77;97098.94;5057361;28;20418;-68
2021/06/04 04:47:04;;;;;;;8.80;6.03;;;;;;;21.91;61.03;97097.19;5057199;28;20418;-69
2021/06/04 04:49:30;;;;;;;8.70;6.67;;;;;;;21.93;61.27;97110.31;5056495;28;20468;-68
2021/06/04 04:51:55;;;;;;;7.07;6.37;;;;;;;21.41;62.63;97116.91;5060894;28;20418;-67
2021/06/04 04:54:21;;;;;;;6.77;6.10;;;;;;;21.63;62.13;97117.28;5059048;28;20181;-68
2021/06/04 04:56:48;;;;;;;7.30;6.60;;;;;;;21.15;64.15;97121.50;5059089;28;20254;-68
2021/06/04 04:59:15;;;;;;;6.30;5.80;;;;;;;21.36;64.11;97121.28;5056744;28;20434;-69
2021/06/04 05:01:41;;;;;;;7.50;6.70;;;;;;;21.16;65.17;97122.34;5057445;28;20941;-68
2021/06/04 05:04:07;;;;;;;9.20;7.40;;;;;;;21.22;65.24;97118.78;5057076;28;20508;-67
2021/06/04 05:06:34;;;;;;;6.83;6.20;;;;;;;21.71;63.03;97118.00;5055312;28;20171;-68
2021/06/04 05:08:59;;;;;;;6.70;6.00;;;;;;;21.83;62.66;97118.03;5057665;28;20217;-69
2021/06/04 05:11:25;;;;;;;6.97;6.37;;;;;;;21.71;62.94;97116.16;5047044;28;20401;-68
2021/06/04 05:13:50;;;;;;;6.67;6.13;;;;;;;21.92;62.34;97116.69;5055653;28;20538;-67
2021/06/04 05:16:16;;;;;;;6.73;6.13;;;;;;;21.85;62.36;97114.09;5056635;28;20189;-68
2021/06/04 05:18:42;;;;;;;11.80;6.33;;;;;;;21.31;64.61;97120.09;5055456;28;20203;-68
2021/06/04 05:21:10;;;;;;;9.30;5.80;;;;;;;21.61;63.64;97116.69;5051164;28;20190;-68
2021/06/04 05:23:35;;;;;;;7.67;6.67;;;;;;;21.59;63.59;97118.75;5055716;28;20916;-68
2021/06/04 05:26:02;;;;;;;7.00;6.30;;;;;;;21.85;62.74;97114.09;5056777;28;20570;-66
2021/06/04 05:28:28;;;;;;;6.77;5.60;;;;;;;22.32;61.11;97118.75;5054860;28;20178;-67
2021/06/04 05:30:59;;;;;;;6.67;5.97;;;;;;;22.08;61.23;97124.03;5057152;28;20444;-67
2021/06/04 05:33:31;;;;;;;6.33;5.30;;;;;;;22.25;60.54;97118.84;5059948;28;20428;-68
2021/06/04 05:35:58;;;;;;;6.70;5.03;;;;;;;22.35;60.41;97122.81;5060620;28;20425;-67
2021/06/04 05:38:24;;;;;;;5.73;5.10;;;;;;;22.63;58.97;97118.69;5044771;28;20420;-67
2021/06/04 05:40:50;;;;;;;7.83;6.20;;;;;;;22.42;59.65;97112.03;5048700;28;20912;-68
2021/06/04 05:43:21;;;;;;;8.47;4.87;;;;;;;22.58;58.26;97115.88;5058361;28;20236;-69
2021/06/04 05:45:47;;;;;;;9.50;4.67;;;;;;;22.50;58.54;97109.03;5059545;28;20511;-68
2021/06/04 05:48:14;;;;;;;9.10;5.00;;;;;;;22.88;57.67;97120.28;5058579;28;20482;-67
2021/06/04 05:50:43;;;;;;;5.20;4.70;;;;;;;23.42;55.97;97115.59;5058921;28;20436;-67
2021/06/04 05:53:10;;;;;;;7.07;4.90;;;;;;;23.74;55.05;97109.75;5059792;28;20437;-68
2021/06/04 05:55:36;;;;;;;6.17;4.80;;;;;;;24.24;53.65;97110.09;5060322;28;20417;-69
2021/06/04 05:58:04;;;;;;;4.37;3.83;;;;;;;24.38;51.76;97110.59;5049147;28;20433;-68
2021/06/04 06:00:35;;;;;;;5.07;3.60;;;;;;;24.72;51.07;97112.44;5051936;28;20437;-67
2021/06/04 06:03:01;;;;;;;4.20;3.83;;;;;;;24.80;50.72;97117.41;5058225;28;20453;-68
2021/06/04 06:05:27;;;;;;;9.00;3.80;;;;;;;25.08;49.45;97123.66;5059983;28;20501;-68
2021/06/04 06:07:53;;;;;;;3.40;3.10;;;;;;;25.03;48.62;97120.94;5058566;28;20457;-67
2021/06/04 06:10:21;;;;;;;5.10;2.70;;;;;;;25.42;46.88;97118.22;5058110;28;20535;-68
2021/06/04 06:12:47;;;;;;;3.33;3.00;;;;;;;26.07;45.63;97124.53;5059624;28;20437;-69
2021/06/04 06:15:13;;;;;;;3.20;3.00;;;;;;;25.78;46.13;97126.66;5055667;28;20421;-68
2021/06/04 06:17:39;;;;;;;4.10;2.60;;;;;;;25.69;46.52;97122.81;5058904;28;20419;-70
2021/06/04 06:20:08;;;;;;;4.47;2.60;;;;;;;25.27;46.47;97122.31;5058884;28;20486;-68
2021/06/04 06:22:34;;;;;;;5.57;2.63;;;;;;;25.43;46.76;97126.03;5055286;28;20209;-69
2021/06/04 06:24:59;;;;;;;2.60;2.40;;;;;;;25.22;46.91;97124.91;5057976;28;20418;-69
2021/06/04 06:27:25;;;;;;;2.37;2.10;;;;;;;25.03;47.00;97137.81;5051415;28;20171;-69
2021/06/04 06:29:50;;;;;;;3.80;2.77;;;;;;;24.83;48.44;97135.66;5059386;28;20199;-69
2021/06/04 06:32:20;;;;;;;3.63;2.40;;;;;;;24.83;48.41;97130.28;5052418;28;20189;-66
2021/06/04 06:34:47;;;;;;;3.77;3.27;;;;;;;24.33;50.27;97134.59;5049535;28;20178;-68
2021/06/04 06:37:14;;;;;;;3.00;2.73;;;;;;;24.34;49.99;97134.34;5058134;28;20452;-69
2021/06/04 06:39:40;;;;;;;2.87;2.67;;;;;;;24.42;48.99;97148.41;5058143;28;20433;-67
2021/06/04 06:42:06;;;;;;;3.93;3.10;;;;;;;24.72;48.64;97141.91;5059599;28;20434;-68
2021/06/04 06:44:32;;;;;;;6.30;2.70;;;;;;;24.69;48.97;97146.75;5058659;28;20202;-67
2021/06/04 06:46:59;;;;;;;8.90;2.80;;;;;;;24.61;49.56;97148.97;5060865;28;20425;-66
2021/06/04 06:49:26;;;;;;;19.90;3.27;;;;;;;24.71;49.03;97161.72;5058393;28;20221;-70
2021/06/04 06:51:52;;;;;;;2.80;2.40;;;;;;;24.51;49.18;97157.66;5062353;28;20422;-68
2021/06/04 06:54:22;;;;;;;3.00;2.80;;;;;;;24.49;49.15;97162.44;5057401;28;20425;-68
2021/06/04 06:56:51;;;;;;;9.43;3.40;;;;;;;24.67;48.76;97156.84;5035423;28;20429;-67
2021/06/04 06:59:18;;;;;;;4.00;2.60;;;;;;;24.51;49.14;97163.00;5040855;28;20462;-67
2021/06/04 07:01:43;;;;;;;5.10;2.80;;;;;;;25.03;48.27;97158.47;5057762;28;20452;-67
2021/06/04 07:04:09;;;;;;;4.83;2.63;;;;;;;25.10;47.08;97153.72;5042295;28;20461;-67
2021/06/04 07:06:37;;;;;;;2.80;2.47;;;;;;;25.00;46.57;97152.53;5058275;28;20179;-68
2021/06/04 07:09:05;;;;;;;6.33;2.20;;;;;;;24.97;45.70;97155.69;5057150;28;20552;-68
2021/06/04 07:11:35;;;;;;;3.43;2.40;;;;;;;25.07;45.51;97156.91;5058625;28;20611;-69
2021/06/04 07:14:00;;;;;;;3.10;2.80;;;;;;;25.32;45.33;97156.44;5058521;28;20424;-68
2021/06/04 07:16:26;;;;;;;2.50;2.30;;;;;;;25.43;44.69;97157.41;5059076;28;20421;-68
2021/06/04 07:18:52;;;;;;;4.73;2.20;;;;;;;25.65;44.10;97167.31;5058594;28;20389;-67
2021/06/04 07:21:24;;;;;;;11.40;2.33;;;;;;;25.60;43.86;97178.78;5046889;28;20936;-69
2021/06/04 07:23:50;;;;;;;4.40;2.20;;;;;;;25.83;42.99;97176.91;5056452;28;20521;-67
2021/06/04 07:26:17;;;;;;;7.87;2.60;;;;;;;26.40;42.71;97180.97;5058078;28;20453;-68
2021/06/04 07:28:44;;;;;;;3.43;2.23;;;;;;;26.77;42.47;97180.19;5051130;28;20209;-68
2021/06/04 07:31:12;;;;;;;6.70;2.30;;;;;;;27.10;41.29;97178.28;5058385;28;20824;-67
2021/06/04 07:33:44;;;;;;;2.43;2.20;;;;;;;27.10;41.56;97172.91;5059709;28;20768;-69
2021/06/04 07:36:19;;;;;;;5.57;2.67;;;;;;;27.70;40.35;97169.97;5067951;28;20418;-69
2021/06/04 07:38:45;;;;;;;5.07;1.90;;;;;;;27.82;40.15;97167.03;5049075;28;20440;-68
2021/06/04 07:41:11;;;;;;;4.47;2.37;;;;;;;27.78;40.24;97170.53;5064925;28;20422;-69
2021/06/04 07:43:39;;;;;;;2.07;1.90;;;;;;;27.95;39.61;97179.22;5063189;28;20462;-69
2021/06/04 07:46:07;;;;;;;11.03;2.20;;;;;;;28.48;37.80;97164.75;5064639;28;20175;-66
2021/06/04 07:48:33;;;;;;;6.23;2.00;;;;;;;28.61;37.09;97166.88;5066329;28;20418;-68
2021/06/04 07:51:00;;;;;;;3.17;2.30;;;;;;;28.14;37.45;97171.47;5064630;28;20417;-69
2021/06/04 07:53:29;;;;;;;3.57;1.70;;;;;;;28.28;36.52;97174.44;5056961;28;20425;-68
2021/06/04 07:55:55;;;;;;;3.07;2.13;;;;;;;28.99;35.28;97172.00;5049929;28;20491;-68
2021/06/04 07:58:21;;;;;;;4.43;1.80;;;;;;;29.63;33.37;97166.13;5036386;28;20932;-67
2021/06/04 08:00:47;;;;;;;3.10;1.63;;;;;;;28.72;35.28;97156.94;5052803;28;20226;-70
2021/06/04 08:03:18;;;;;;;2.00;1.80;;;;;;;29.03;34.96;97161.47;5054724;28;20798;-67
2021/06/04 08:05:45;;;;;;;3.63;1.63;;;;;;;28.81;35.87;97154.50;5049425;28;20418;-70
2021/06/04 08:08:10;;;;;;;1.80;1.63;;;;;;;29.89;34.55;97150.63;5049616;28;20427;-66
2021/06/04 08:10:38;;;;;;;3.00;1.53;;;;;;;29.99;33.48;97160.59;5059668;28;20456;-69
2021/06/04 08:13:05;;;;;;;3.20;2.03;;;;;;;30.28;33.76;97157.97;5058923;28;20202;-69
2021/06/04 08:15:37;;;;;;;8.00;1.77;;;;;;;30.36;33.51;97163.84;5054756;28;20419;-68
2021/06/04 08:18:04;;;;;;;3.57;1.83;;;;;;;30.89;31.68;97161.25;5040896;28;20446;-69
2021/06/04 08:20:33;;;;;;;5.00;1.80;;;;;;;30.33;32.69;97162.50;5041935;28;20850;-69
2021/06/04 08:23:04;;;;;;;6.03;1.73;;;;;;;30.24;32.42;97159.59;5040213;28;20450;-69
2021/06/04 08:25:34;;;;;;;4.13;2.10;;;;;;;30.23;32.62;97165.31;5033875;28;20418;-69
2021/06/04 08:28:00;;;;;;;4.10;2.00;;;;;;;28.72;34.53;97175.81;5032458;28;20497;-67
2021/06/04 08:30:26;;;;;;;4.60;2.17;;;;;;;29.25;34.12;97169.25;5040517;28;21132;-67
2021/06/04 08:32:53;;;;;;;6.80;1.97;;;;;;;29.77;33.19;97161.75;5025466;28;20443;-68
2021/06/04 08:35:20;;;;;;;3.97;2.30;;;;;;;28.62;35.80;97168.50;5039045;28;20425;-67
2021/06/04 08:37:46;;;;;;;6.13;2.70;;;;;;;28.78;35.90;97171.22;5057435;28;20418;-69
2021/06/04 08:40:16;;;;;;;5.70;2.60;;;;;;;29.37;34.93;97171.66;5053457;28;20476;-69
2021/06/04 08:43:24;;;;;;;10.73;2.53;;;;;;;29.30;35.07;97163.81;5043892;28;20204;-67
2021/06/04 08:46:04;;;;;;;2.77;2.37;;;;;;;29.87;33.97;97166.28;5044832;28;20437;-68
2021/06/04 08:48:45;;;;;;;3.53;2.20;;;;;;;29.91;33.77;97161.13;5052782;28;20470;-67
2021/06/04 08:51:17;;;;;;;3.93;3.53;;;;;;;30.04;34.29;97157.84;5038169;28;20431;-70
2021/06/04 08:54:02;;;;;;;3.73;2.27;;;;;;;29.73;35.17;97163.41;5056093;28;20418;-67
2021/06/04 08:56:50;;;;;;;8.37;2.50;;;;;;;28.97;36.38;97160.66;5056333;28;20417;-67
2021/06/04 08:59:18;;;;;;;5.13;2.30;;;;;;;29.79;34.82;97151.47;5054227;28;20445;-68
2021/06/04 09:01:52;;;;;;;4.30;2.30;;;;;;;29.71;34.82;97163.66;5021578;28;20433;-67
2021/06/04 09:04:42;;;;;;;6.30;2.50;;;;;;;30.24;34.84;97150.69;5054112;28;20492;-68
2021/06/04 09:07:12;;;;;;;3.87;2.00;;;;;;;30.91;33.52;97161.78;5055269;28;20429;-68
2021/06/04 09:09:44;;;;;;;5.37;2.50;;;;;;;30.89;33.09;97155.84;5054861;28;20511;-67
2021/06/04 09:12:19;;;;;;;4.87;2.43;;;;;;;30.23;34.26;97154.50;5036984;28;20433;-69
2021/06/04 09:14:54;;;;;;;3.40;2.17;;;;;;;30.98;32.73;97145.19;5055163;28;20447;-69
2021/06/04 09:17:38;;;;;;;6.07;2.40;;;;;;;31.21;32.96;97148.22;5053076;28;20484;-68
2021/06/04 09:20:09;;;;;;;3.20;2.63;;;;;;;31.37;32.30;97144.25;5053866;28;20437;-68
2021/06/04 09:22:45;;;;;;;2.87;2.63;;;;;;;30.66;33.00;97154.69;5051492;28;20559;-69
2021/06/04 09:25:16;;;;;;;2.40;2.20;;;;;;;31.04;32.61;97151.38;5055696;28;20429;-68
2021/06/04 09:28:04;;;;;;;3.60;2.40;;;;;;;30.28;33.31;97151.72;5047401;28;20559;-69
2021/06/04 09:30:34;;;;;;;4.80;2.30;;;;;;;29.50;35.29;97144.06;5054810;28;20474;-67
2021/06/04 09:33:18;;;;;;;4.37;2.63;;;;;;;28.96;36.46;97148.28;5055130;28;20433;-69
2021/06/04 09:36:09;;;;;;;2.73;2.47;;;;;;;29.32;35.78;97139.25;5054915;28;20444;-68
2021/06/04 09:38:38;;;;;;;5.63;2.50;;;;;;;29.55;36.21;97140.56;5054315;28;20447;-68
2021/06/04 09:41:25;;;;;;;6.60;3.00;;;;;;;28.74;39.36;97143.19;5054927;28;20441;-68
2021/06/04 09:44:14;;;;;;;8.70;3.20;;;;;;;28.28;40.15;97142.09;5054929;28;20813;-68
2021/06/04 09:46:42;;;;;;;5.77;3.00;;;;;;;28.17;39.80;97132.41;5054011;28;20786;-68
2021/06/04 09:49:07;;;;;;;5.27;2.53;;;;;;;28.53;38.74;97131.59;5054979;28;20528;-67
2021/06/04 09:51:39;;;;;;;7.63;3.17;;;;;;;28.22;39.70;97132.41;5055455;28;20520;-68
2021/06/04 09:54:28;;;;;;;10.33;3.20;;;;;;;28.19;40.00;97132.94;5053455;28;20399;-68
2021/06/04 09:57:16;;;;;;;5.73;2.50;;;;;;;28.70;38.29;97125.91;5046731;28;20984;-67
2021/06/04 09:59:42;;;;;;;8.27;3.30;;;;;;;28.33;40.38;97125.94;5034992;28;20477;-68
2021/06/04 10:02:26;;;;;;;3.90;2.90;;;;;;;29.31;39.19;97124.16;5053812;28;20434;-69
2021/06/04 10:04:53;;;;;;;6.40;3.20;;;;;;;29.53;38.43;97115.72;5039647;28;20644;-68
2021/06/04 10:07:20;;;;;;;7.30;3.37;;;;;;;28.90;40.07;97117.81;5050542;28;20434;-68
2021/06/04 10:09:47;;;;;;;7.57;3.30;;;;;;;29.20;38.94;97115.28;5048961;28;20814;-68
2021/06/04 10:12:35;;;;;;;4.03;2.77;;;;;;;28.98;39.32;97121.03;5038583;28;20568;-69
2021/06/04 10:15:14;;;;;;;4.90;3.07;;;;;;;29.69;37.71;97111.03;5053660;28;20422;-69
2021/06/04 10:17:48;;;;;;;7.13;4.80;;;;;;;29.54;38.08;97122.75;5055399;28;20739;-68
2021/06/04 10:20:37;;;;;;;4.60;2.90;;;;;;;29.53;38.57;97113.81;5058174;28;20987;-66
2021/06/04 10:23:08;;;;;;;4.40;2.97;;;;;;;29.55;38.47;97118.97;5053670;28;20539;-68
2021/06/04 10:25:40;;;;;;;3.80;3.03;;;;;;;28.43;41.46;97129.72;5058196;28;20449;-68
2021/06/04 10:28:05;;;;;;;4.10;2.77;;;;;;;28.28;41.70;97135.91;5050779;28;20422;-69
2021/06/04 10:30:34;;;;;;;6.53;3.13;;;;;;;27.73;42.79;97144.41;5055892;28;20442;-69
2021/06/04 10:33:08;;;;;;;4.37;3.13;;;;;;;28.63;41.01;97134.28;5041895;28;20181;-67
2021/06/04 10:35:45;;;;;;;3.17;2.87;;;;;;;28.64;41.25;97125.91;5057730;28;20507;-69
2021/06/04 10:38:23;;;;;;;3.70;2.80;;;;;;;28.07;42.89;97124.28;5057255;28;20453;-70
2021/06/04 10:40:55;;;;;;;3.20;2.90;;;;;;;28.49;42.14;97115.13;5057147;28;20456;-69
2021/06/04 10:43:32;;;;;;;9.20;3.27;;;;;;;28.16;42.54;97111.94;5056845;28;20921;-69
2021/06/04 10:46:13;;;;;;;4.00;3.00;;;;;;;28.71;41.21;97109.47;5024439;28;20533;-69
2021/06/04 10:49:09;;;;;;;6.30;3.30;;;;;;;29.14;40.38;97114.50;5058272;28;21027;-68
2021/06/04 10:51:43;;;;;;;7.27;2.93;;;;;;;29.07;39.88;97116.69;5041152;28;20421;-68
2021/06/04 10:54:13;;;;;;;6.20;2.67;;;;;;;29.09;39.27;97112.63;5058938;28;20422;-68
2021/06/04 10:57:02;;;;;;;6.83;3.07;;;;;;;29.15;39.71;97116.13;5054146;28;20551;-68
2021/06/04 11:00:00;;;;;;;5.60;2.80;;;;;;;29.67;39.36;97118.63;5040481;28;20481;-68
2021/06/04 11:02:43;;;;;;;3.80;3.40;;;;;;;29.54;39.57;97118.13;5044942;28;20446;-67
2021/06/04 11:05:31;;;;;;;7.67;3.07;;;;;;;29.91;39.40;97120.63;5060265;28;20428;-66
2021/06/04 11:08:15;;;;;;;5.83;3.30;;;;;;;30.15;38.76;97123.47;5058022;28;20892;-69
2021/06/04 11:11:06;;;;;;;10.27;3.40;;;;;;;30.48;37.79;97113.75;5058956;28;20433;-67
2021/06/04 11:14:03;;;;;;;6.07;3.00;;;;;;;30.75;37.21;97120.53;5059071;28;20441;-68
2021/06/04 11:17:09;;;;;;;9.40;3.33;;;;;;;30.75;36.89;97115.13;5059072;28;20441;-69
2021/06/04 11:19:38;;;;;;;8.40;2.70;;;;;;;30.42;37.25;97109.47;5048689;28;20461;-68
2021/06/04 11:22:10;;;;;;;4.60;2.90;;;;;;;30.23;37.10;97112.06;5038042;28;20481;-67
2021/06/04 11:24:42;;;;;;;6.90;3.90;;;;;;;30.88;36.26;97104.72;5030922;28;20977;-66
2021/06/04 11:27:12;;;;;;;7.83;3.10;;;;;;;31.55;35.27;97118.31;5028339;28;20427;-68
2021/06/04 11:29:39;;;;;;;6.70;3.07;;;;;;;31.52;35.50;97110.75;5056033;28;20452;-69
2021/06/04 11:32:19;;;;;;;7.20;3.87;;;;;;;31.40;36.35;97111.16;5044482;28;20410;-69
2021/06/04 11:34:59;;;;;;;5.20;3.67;;;;;;;31.62;35.88;97093.56;5054837;28;20418;-68
2021/06/04 11:37:25;;;;;;;5.77;3.10;;;;;;;31.53;35.83;97085.28;5040885;28;20428;-67
2021/06/04 11:39:54;;;;;;;8.00;3.27;;;;;;;30.73;36.96;97078.66;5057523;28;20446;-68
2021/06/04 11:42:26;;;;;;;4.60;3.00;;;;;;;29.83;38.98;97087.75;5038771;28;20632;-67
2021/06/04 11:44:55;;;;;;;4.60;3.40;;;;;;;30.15;38.46;97078.34;5056409;28;20429;-68
2021/06/04 11:47:20;;;;;;;6.50;3.53;;;;;;;30.31;37.87;97080.91;5055635;28;20428;-67
2021/06/04 11:50:06;;;;;;;4.70;3.07;;;;;;;29.43;39.20;97078.78;5057248;28;20446;-68
2021/06/04 11:52:36;;;;;;;7.03;2.83;;;;;;;30.11;38.42;97082.72;5058450;28;20178;-68
2021/06/04 11:55:12;;;;;;;7.87;3.83;;;;;;;29.73;39.18;97085.13;5040553;28;20434;-70